METAR AND TAF INFORMATION
METAR FOR EVRA
ADDS - METARS form results

(1752 UTC 23 June 2018)
Data provider http://aviationweather.gov/adds/metars/
 
METAR text: EVRA 231750Z 34005KT CAVOK 15/10 Q1011 NOSIG
Conditions at: EVRA (RIGA AIRPORT , LV) observed 1750 UTC 23 June 2018
Temperature: 15.0°C (59°F)
Dewpoint: 10.0°C (50°F) [RH = 72%]
Pressure (altimeter): 29.85 inches Hg (1011.0 mb)
Winds: from the NNW (340 degrees) at 6 MPH (5 knots; 2.6 m/s)
Visibility: 6 or more miles (10+ km)
Ceiling: ceiling and visibility are OK
Clouds: unknown
Weather: no significant weather observed at this time

METAR text: EVRA 231720Z 28003KT 240V320 CAVOK 15/10 Q1011 NOSIG
Conditions at: EVRA (RIGA AIRPORT , LV) observed 1720 UTC 23 June 2018
Temperature: 15.0°C (59°F)
Dewpoint: 10.0°C (50°F) [RH = 72%]
Pressure (altimeter): 29.85 inches Hg (1011.0 mb)
Winds: from the W (280 degrees) at 3 MPH (3 knots; 1.6 m/s)
Visibility: 6 or more miles (10+ km)
Ceiling: ceiling and visibility are OK
Clouds: unknown
Weather: no significant weather observed at this time

Forecast for: EVRA (RIGA AIRPORT , LV)
Text: TAF EVRA 231700Z 2318/2418 27005KT 9999 BKN030
Forecast period: 1800 UTC 23 June 2018 to 0600 UTC 24 June 2018
Forecast type: FROM: standard forecast or significant change
Winds: from the W (270 degrees) at 6 MPH (5 knots; 2.6 m/s)
Visibility: 6 or more miles (10+ km)
Ceiling: 3000 feet AGL
Clouds: broken clouds at 3000 feet AGL
Weather: no significant weather forecast for this period
Text: BECMG 2406/2408 34007KT
Forecast period: 0600 to 1800 UTC 24 June 2018
Forecast type: BECOMING: Conditions expected to become as follows by 0800 UTC 24 June 2018
Winds: from the NNW (340 degrees) at 8 MPH (7 knots; 3.6 m/s)
Visibility: 6 or more miles (10+ km)
Ceiling: 3000 feet AGL
Clouds: broken clouds at 3000 feet AGL
Weather: no significant weather forecast for this period
Text: TEMPO 2409/2418 36015G26KT BKN010CB
Forecast period: 0900 to 1800 UTC 24 June 2018
Forecast type: TEMPORARY: The following changes expected for less than half the time period
Winds: from the N (360 degrees) at 17 MPH (15 knots; 7.8 m/s)
gusting to 30 MPH (26 knots; 13.5 m/s)
Ceiling: 1000 feet AGL
Clouds: broken clouds at 1000 feet AGL
Weather: no significant weather forecast for this period

 AIRPORT MAP

 RUNWAY INFORMATION
Runway 18 Runway length 10499 ft Runway width 148 ft
Runway elevation 31 ft Runway displaced threshold 0 ft Runway heading 185
Runway 36 Runway length 10499 ft Runway width 148 ft
Runway elevation 34 ft Runway displaced threshold 0 ft Runway heading 5

 AIRPORT FREQUENCIES
Type APP Name APP Frequency 129.925 MHZ
Type ATIS Name ATIS Frequency 121.2 MHZ
Type GND Name Riga Groun Frequency 118.8 MHZ
Type MISC Name Riga Apron Frequency 131.6 MHZ
Type TWR Name TWR Frequency 118.1 MHZ

 AIRPORT NEAR NAVIGATION AIDS
Type VOR-DME Name Riga Frequency 112050 KHZ
Type VOR-DME Name Riga Frequency 113700 KHZ



Powered by Virtual Airlines Manager [v2.6.2]